createdAt,value
2019-03-13T00:01:05.823Z,24.72
2019-03-13T00:03:34.675Z,28.27
2019-03-13T00:06:03.599Z,26.48
2019-03-13T00:08:32.409Z,24.47
2019-03-13T00:11:01.244Z,33.15
2019-03-13T00:13:30.172Z,26.80
2019-03-13T00:15:59.050Z,27.27
2019-03-13T00:18:27.901Z,26.05
2019-03-13T00:20:56.900Z,26.23
2019-03-13T00:23:25.756Z,22.90
2019-03-13T00:25:54.607Z,20.75
2019-03-13T00:28:23.516Z,25.75
2019-03-13T00:30:52.397Z,20.77
2019-03-13T00:33:21.178Z,19.60
2019-03-13T00:35:50.159Z,15.60
2019-03-13T00:38:19.008Z,15.53
2019-03-13T00:40:47.882Z,14.73
2019-03-13T00:43:16.783Z,17.87
2019-03-13T00:45:46.183Z,15.93
2019-03-13T00:48:15.015Z,16.65
2019-03-13T00:50:43.877Z,20.20
2019-03-13T00:53:12.685Z,18.73
2019-03-13T00:55:41.506Z,20.43
2019-03-13T00:58:10.418Z,19.95
2019-03-13T01:00:49.629Z,19.62
2019-03-13T01:03:29.283Z,17.40
2019-03-13T01:06:08.908Z,23.95
2019-03-13T01:08:37.910Z,23.00
2019-03-13T01:11:06.891Z,22.25
2019-03-13T01:13:35.893Z,20.15
2019-03-13T01:16:04.899Z,21.90
2019-03-13T01:18:33.792Z,24.10
2019-03-13T01:21:02.788Z,26.57
2019-03-13T01:23:31.778Z,26.50
2019-03-13T01:26:00.794Z,28.42
2019-03-13T01:28:29.678Z,31.40
2019-03-13T01:31:00.190Z,31.93
2019-03-13T01:33:29.097Z,29.70
2019-03-13T01:35:59.638Z,25.43
2019-03-13T01:38:47.970Z,24.07
2019-03-13T01:41:16.965Z,24.85
2019-03-13T01:43:45.800Z,25.48
2019-03-13T01:46:15.066Z,23.57
2019-03-13T01:48:43.895Z,22.50
2019-03-13T01:51:12.853Z,23.12
2019-03-13T01:53:41.853Z,21.05
2019-03-13T01:56:10.843Z,24.98
2019-03-13T01:58:39.743Z,21.95
2019-03-13T02:01:08.913Z,22.87
2019-03-13T02:03:38.152Z,20.37
2019-03-13T02:06:07.144Z,23.45
2019-03-13T02:08:36.246Z,21.33
2019-03-13T02:11:05.134Z,26.77
2019-03-13T02:13:33.898Z,32.63
2019-03-13T02:16:02.927Z,27.55
2019-03-13T02:18:31.920Z,31.68
2019-03-13T02:21:00.821Z,29.75
2019-03-13T02:23:29.817Z,32.67
2019-03-13T02:25:58.815Z,29.75
2019-03-13T02:28:27.711Z,23.40
2019-03-13T02:30:56.552Z,35.48
2019-03-13T02:33:25.313Z,36.88
2019-03-13T02:35:54.163Z,32.42
2019-03-13T02:38:22.986Z,37.60
2019-03-13T02:40:51.773Z,42.73
2019-03-13T02:43:20.542Z,44.08
2019-03-13T02:45:49.448Z,39.85
2019-03-13T02:48:18.462Z,44.15
2019-03-13T02:50:47.454Z,36.20
2019-03-13T02:53:16.452Z,37.93
2019-03-13T02:55:45.240Z,31.45
2019-03-13T02:58:14.133Z,33.13
2019-03-13T03:00:59.812Z,32.75
2019-03-13T03:03:30.260Z,29.02
2019-03-13T03:06:00.778Z,30.65
2019-03-13T03:08:29.781Z,31.93
2019-03-13T03:10:58.674Z,28.52
2019-03-13T03:13:27.560Z,31.70
2019-03-13T03:15:56.457Z,31.25
2019-03-13T03:18:25.454Z,36.48
2019-03-13T03:20:54.245Z,33.23
2019-03-13T03:23:23.145Z,37.15
2019-03-13T03:25:52.138Z,33.80
2019-03-13T03:28:21.028Z,28.65
2019-03-13T03:30:49.897Z,26.37
2019-03-13T03:33:18.744Z,31.15
2019-03-13T03:35:47.483Z,28.15
2019-03-13T03:38:16.406Z,29.72
2019-03-13T03:40:45.244Z,33.88
2019-03-13T03:43:14.054Z,26.87
2019-03-13T03:45:42.995Z,21.68
2019-03-13T03:48:11.828Z,23.20
2019-03-13T03:50:40.646Z,29.50
2019-03-13T03:53:09.482Z,22.35
2019-03-13T03:55:38.358Z,31.37
2019-03-13T03:58:07.115Z,27.98
2019-03-13T04:03:12.209Z,26.80
2019-03-13T04:05:41.006Z,31.40
2019-03-13T04:08:10.204Z,27.90
2019-03-13T04:10:39.205Z,25.92
2019-03-13T04:13:08.306Z,22.05
2019-03-13T04:15:37.110Z,21.37
2019-03-13T04:18:05.906Z,25.08
2019-03-13T04:20:35.883Z,22.10
2019-03-13T04:23:06.441Z,24.60
2019-03-13T04:25:35.330Z,23.27
2019-03-13T04:28:04.745Z,21.62
2019-03-13T04:30:33.742Z,22.55
2019-03-13T04:33:02.737Z,26.45
2019-03-13T04:35:31.832Z,22.80
2019-03-13T04:38:00.781Z,26.25
2019-03-13T04:40:29.828Z,21.15
2019-03-13T04:42:58.717Z,22.25
2019-03-13T04:45:27.619Z,27.37
2019-03-13T04:47:56.442Z,20.92
2019-03-13T04:50:25.229Z,23.57
2019-03-13T04:52:54.023Z,20.50
2019-03-13T04:55:22.918Z,27.32
2019-03-13T04:57:51.727Z,24.15
2019-03-13T05:00:21.997Z,21.10
2019-03-13T05:02:50.946Z,20.12
2019-03-13T05:05:37.486Z,20.75
2019-03-13T05:08:06.400Z,18.42
2019-03-13T05:10:35.237Z,21.30
2019-03-13T05:13:04.123Z,18.90
2019-03-13T05:15:32.987Z,16.42
2019-03-13T05:18:01.832Z,18.70
2019-03-13T05:20:30.617Z,18.27
2019-03-13T05:22:59.439Z,17.45
2019-03-13T05:25:28.294Z,18.17
2019-03-13T05:27:57.131Z,15.03
2019-03-13T05:30:26.046Z,14.20
2019-03-13T05:32:54.864Z,15.95
2019-03-13T05:35:23.686Z,16.48
2019-03-13T05:37:52.582Z,22.70
2019-03-13T05:40:21.392Z,20.60
2019-03-13T05:42:50.166Z,23.30
2019-03-13T05:45:18.992Z,23.70
2019-03-13T05:47:47.730Z,25.17
2019-03-13T05:50:16.604Z,23.55
2019-03-13T05:52:45.455Z,20.12
2019-03-13T05:55:14.263Z,23.35
2019-03-13T05:57:43.036Z,22.80
2019-03-13T06:00:14.078Z,26.17
2019-03-13T06:02:42.945Z,22.82
2019-03-13T06:05:11.732Z,23.05
2019-03-13T06:07:40.557Z,22.90
2019-03-13T06:10:11.220Z,22.55
2019-03-13T06:12:40.216Z,22.70
2019-03-13T06:15:11.250Z,21.15
2019-03-13T06:17:40.126Z,17.87
2019-03-13T06:20:12.132Z,18.25
2019-03-13T06:22:41.040Z,19.67
2019-03-13T06:25:11.403Z,19.20
2019-03-13T06:27:40.312Z,21.95
2019-03-13T06:30:12.114Z,25.57
2019-03-13T06:32:40.867Z,24.32
2019-03-13T06:35:10.304Z,25.50
2019-03-13T06:37:39.120Z,19.52
2019-03-13T06:40:12.965Z,23.73
2019-03-13T06:42:41.806Z,22.42
2019-03-13T06:45:13.555Z,22.98
2019-03-13T06:47:42.401Z,22.62
2019-03-13T06:50:13.893Z,20.20
2019-03-13T06:52:42.740Z,22.17
2019-03-13T06:55:11.586Z,22.02
2019-03-13T06:57:40.388Z,21.10
2019-03-13T07:00:27.634Z,19.92
2019-03-13T07:03:04.065Z,18.52
2019-03-13T07:05:50.817Z,23.67
2019-03-13T07:08:26.934Z,17.95
2019-03-13T07:11:03.428Z,16.32
2019-03-13T07:13:33.885Z,20.10
2019-03-13T07:16:04.303Z,16.17
2019-03-13T07:18:37.514Z,15.78
2019-03-13T07:21:13.471Z,17.13
2019-03-13T07:23:43.928Z,18.85
2019-03-13T07:26:20.422Z,17.80
2019-03-13T07:29:12.170Z,17.40
2019-03-13T07:31:54.912Z,20.70
2019-03-13T07:34:34.410Z,16.95
2019-03-13T07:37:07.549Z,21.73
2019-03-13T07:39:41.023Z,17.55
2019-03-13T07:42:11.539Z,16.35
2019-03-13T07:44:41.962Z,17.57
2019-03-13T07:47:30.811Z,20.25
2019-03-13T07:50:03.993Z,21.10
2019-03-13T07:52:34.490Z,13.07
2019-03-13T07:55:07.918Z,20.27
2019-03-13T07:57:41.354Z,15.95
2019-03-13T08:00:13.652Z,17.35
2019-03-13T08:02:44.120Z,16.55
2019-03-13T08:05:20.735Z,17.50
2019-03-13T08:08:06.232Z,18.35
2019-03-13T08:10:42.727Z,19.40
2019-03-13T08:13:13.147Z,17.02
2019-03-13T08:15:55.868Z,21.90
2019-03-13T08:18:32.092Z,25.15
2019-03-13T08:21:02.599Z,21.93
2019-03-13T08:23:38.936Z,24.98
2019-03-13T08:26:09.417Z,20.23
2019-03-13T08:28:48.796Z,23.60
2019-03-13T08:31:19.241Z,20.50
2019-03-13T08:33:59.969Z,23.22
2019-03-13T08:36:36.081Z,23.35
2019-03-13T08:39:24.579Z,21.87
2019-03-13T08:41:58.070Z,20.62
2019-03-13T08:44:34.598Z,24.65
2019-03-13T08:47:21.569Z,19.65
2019-03-13T08:50:04.139Z,19.42
2019-03-13T08:52:34.625Z,22.32
2019-03-13T08:55:17.364Z,21.27
2019-03-13T08:57:50.861Z,23.35
2019-03-13T09:00:23.753Z,20.17
2019-03-13T09:02:54.172Z,23.52
2019-03-13T09:05:33.308Z,19.57
2019-03-13T09:08:15.849Z,22.98
2019-03-13T09:11:01.680Z,20.15
2019-03-13T09:13:35.120Z,17.73
2019-03-13T09:16:08.698Z,26.97
2019-03-13T09:18:41.797Z,21.75
2019-03-13T09:21:18.111Z,20.62
2019-03-13T09:23:51.586Z,21.33
2019-03-13T09:26:34.284Z,23.02
2019-03-13T09:29:04.712Z,23.73
2019-03-13T09:31:35.094Z,25.55
2019-03-13T09:34:17.540Z,29.20
2019-03-13T09:37:04.444Z,21.25
2019-03-13T09:39:47.136Z,25.75
2019-03-13T09:42:26.378Z,22.95
2019-03-13T09:45:02.672Z,22.82
2019-03-13T09:47:42.345Z,24.05
2019-03-13T09:50:19.349Z,27.48
2019-03-13T09:52:52.970Z,24.90
2019-03-13T09:55:32.723Z,26.45
2019-03-13T09:58:03.150Z,28.00
2019-03-13T10:00:36.589Z,28.77
2019-03-13T10:03:22.416Z,26.42
2019-03-13T10:06:01.746Z,24.60
2019-03-13T10:08:41.085Z,26.25
2019-03-13T10:11:14.264Z,25.80
2019-03-13T10:13:47.447Z,26.30
2019-03-13T10:16:17.877Z,23.80
2019-03-13T10:19:06.669Z,24.43
2019-03-13T10:21:40.239Z,23.67
2019-03-13T10:24:13.444Z,27.90
2019-03-13T10:27:01.850Z,19.95
2019-03-13T10:29:35.398Z,22.70
2019-03-13T10:32:05.884Z,23.27
2019-03-13T10:34:51.506Z,27.13
2019-03-13T10:37:38.364Z,23.05
2019-03-13T10:40:11.070Z,21.40
2019-03-13T10:42:47.285Z,24.02
2019-03-13T10:45:23.820Z,23.07
2019-03-13T10:47:54.232Z,24.40
2019-03-13T10:50:30.931Z,23.30
2019-03-13T10:53:04.156Z,21.87
2019-03-13T10:55:37.450Z,26.20
2019-03-13T10:58:07.858Z,21.70
2019-03-13T11:00:38.278Z,21.95
2019-03-13T11:03:27.031Z,30.05
2019-03-13T11:05:57.568Z,24.63
2019-03-13T11:08:30.827Z,23.83
2019-03-13T11:11:01.295Z,20.43
2019-03-13T11:13:48.053Z,24.77
2019-03-13T11:16:21.220Z,23.00
2019-03-13T11:18:52.488Z,24.50
2019-03-13T11:21:22.958Z,26.33
2019-03-13T11:23:53.629Z,23.77
2019-03-13T11:26:40.643Z,21.33
2019-03-13T11:29:20.333Z,25.92
2019-03-13T11:32:02.966Z,24.52
2019-03-13T11:34:33.393Z,24.87
2019-03-13T11:37:20.057Z,27.85
2019-03-13T11:40:07.151Z,22.70
2019-03-13T11:42:46.579Z,24.57
2019-03-13T11:45:29.237Z,24.25
2019-03-13T11:48:16.411Z,23.90
2019-03-13T11:51:03.362Z,21.25
2019-03-13T11:53:36.556Z,22.13
2019-03-13T11:56:12.527Z,23.63
2019-03-13T11:58:45.976Z,25.15
2019-03-13T12:01:17.536Z,20.02
2019-03-13T12:03:57.060Z,21.00
2019-03-13T12:06:43.868Z,23.70
2019-03-13T12:09:23.242Z,21.17
2019-03-13T12:12:12.303Z,20.77
2019-03-13T12:14:59.043Z,22.73
2019-03-13T12:17:29.505Z,26.90
2019-03-13T12:19:59.980Z,24.98
2019-03-13T12:22:46.613Z,25.20
2019-03-13T12:25:33.422Z,21.33
2019-03-13T12:28:06.902Z,23.67
2019-03-13T12:30:37.386Z,21.75
2019-03-13T12:33:10.337Z,23.52
2019-03-13T12:35:46.191Z,19.10
2019-03-13T12:38:28.460Z,20.48
2019-03-13T12:41:04.692Z,24.25
2019-03-13T12:43:38.034Z,24.05
2019-03-13T12:46:24.590Z,26.57
2019-03-13T12:48:56.397Z,27.77
2019-03-13T12:51:32.800Z,22.67
2019-03-13T12:54:19.580Z,28.92
2019-03-13T12:56:50.144Z,26.20
2019-03-13T12:59:37.218Z,24.47
2019-03-13T13:02:19.752Z,29.57
2019-03-13T13:04:50.267Z,21.70
2019-03-13T13:07:23.394Z,23.02
2019-03-13T13:09:53.914Z,25.95
2019-03-13T13:12:29.848Z,20.20
2019-03-13T13:15:19.086Z,18.60
2019-03-13T13:17:54.984Z,21.87
2019-03-13T13:20:24.283Z,22.48
2019-03-13T13:22:53.304Z,20.55
2019-03-13T13:25:22.045Z,19.17
2019-03-13T13:27:50.955Z,23.30
2019-03-13T13:30:19.834Z,20.88
2019-03-13T13:32:48.665Z,24.98
2019-03-13T13:35:17.585Z,20.60
2019-03-13T13:37:46.368Z,16.30
2019-03-13T13:40:17.037Z,20.70
2019-03-13T13:42:45.948Z,21.90
2019-03-13T13:45:23.368Z,21.30
2019-03-13T13:47:52.337Z,23.47
2019-03-13T13:50:21.330Z,22.67
2019-03-13T13:52:50.242Z,23.10
2019-03-13T13:55:19.248Z,21.90
2019-03-13T13:57:48.074Z,20.17
2019-03-13T14:00:16.968Z,17.25
2019-03-13T14:02:45.876Z,19.70
2019-03-13T14:05:14.733Z,19.10
2019-03-13T14:07:43.563Z,19.10
2019-03-13T14:10:15.349Z,21.90
2019-03-13T14:12:44.185Z,19.70
2019-03-13T14:15:14.826Z,22.05
2019-03-13T14:17:43.705Z,22.75
2019-03-13T14:20:14.697Z,23.30
2019-03-13T14:22:43.609Z,19.57
2019-03-13T14:25:14.016Z,25.68
2019-03-13T14:27:44.570Z,19.85
2019-03-13T14:30:18.404Z,21.93
2019-03-13T14:32:47.236Z,20.70
2019-03-13T14:35:16.276Z,20.35
2019-03-13T14:37:45.065Z,17.55
2019-03-13T14:40:16.402Z,20.57
2019-03-13T14:42:45.221Z,19.42
2019-03-13T14:45:18.848Z,20.37
2019-03-13T14:47:47.692Z,17.70
2019-03-13T14:50:18.949Z,20.92
2019-03-13T14:52:47.838Z,20.95
2019-03-13T14:55:18.453Z,21.02
2019-03-13T14:57:47.482Z,21.17
2019-03-13T15:00:21.271Z,23.15
2019-03-13T15:02:50.178Z,17.50
2019-03-13T15:05:19.050Z,21.05
2019-03-13T15:07:47.981Z,22.80
2019-03-13T15:10:22.209Z,21.10
2019-03-13T15:12:51.060Z,22.10
2019-03-13T15:15:24.194Z,22.85
2019-03-13T15:17:53.649Z,18.03
2019-03-13T15:20:29.628Z,23.90
2019-03-13T15:22:58.664Z,22.32
2019-03-13T15:25:27.506Z,24.80
2019-03-13T15:27:56.398Z,26.17
2019-03-13T15:30:28.190Z,30.65
2019-03-13T15:32:57.193Z,35.85
2019-03-13T15:35:26.109Z,22.10
2019-03-13T15:37:54.997Z,25.95
2019-03-13T15:40:23.846Z,24.00
2019-03-13T15:42:52.749Z,24.23
2019-03-13T15:45:30.123Z,29.15
2019-03-13T15:47:58.985Z,25.88
2019-03-13T15:50:27.908Z,24.80
2019-03-13T15:52:56.919Z,27.77
2019-03-13T15:55:25.748Z,26.62
2019-03-13T15:57:54.622Z,27.17
2019-03-13T16:00:27.894Z,25.95
2019-03-13T16:02:56.797Z,29.13
2019-03-13T16:05:25.628Z,25.32
2019-03-13T16:07:54.518Z,28.57
2019-03-13T16:10:24.068Z,27.90
2019-03-13T16:12:54.590Z,27.30
2019-03-13T16:15:29.342Z,26.48
2019-03-13T16:17:58.160Z,28.02
2019-03-13T16:20:27.065Z,26.35
2019-03-13T16:23:02.484Z,28.70
2019-03-13T16:25:31.652Z,33.28
2019-03-13T16:28:00.474Z,34.00
2019-03-13T16:30:40.703Z,34.03
2019-03-13T16:33:09.566Z,29.80
2019-03-13T16:35:39.365Z,31.95
2019-03-13T16:38:08.286Z,30.97
2019-03-13T16:40:37.137Z,32.08
2019-03-13T16:43:06.001Z,30.88
2019-03-13T16:45:34.917Z,32.65
2019-03-13T16:48:03.791Z,36.05
2019-03-13T16:50:34.466Z,32.63
2019-03-13T16:53:03.386Z,33.13
2019-03-13T16:55:32.237Z,31.57
2019-03-13T16:58:01.023Z,31.80
2019-03-13T17:00:33.871Z,32.45
2019-03-13T17:03:02.757Z,34.05
2019-03-13T17:05:31.623Z,37.17
2019-03-13T17:08:00.475Z,34.10
2019-03-13T17:10:30.029Z,36.95
2019-03-13T17:12:58.910Z,33.80
2019-03-13T17:15:28.418Z,36.50
2019-03-13T17:17:57.283Z,34.53
2019-03-13T17:20:30.650Z,32.23
2019-03-13T17:22:59.582Z,38.67
2019-03-13T17:25:28.421Z,42.38
2019-03-13T17:27:57.261Z,35.33
2019-03-13T17:30:27.559Z,38.48
2019-03-13T17:32:56.534Z,36.83
2019-03-13T17:35:25.386Z,34.95
2019-03-13T17:37:55.403Z,36.68
2019-03-13T17:40:26.147Z,38.90
2019-03-13T17:42:55.019Z,40.78
2019-03-13T17:45:24.865Z,42.40
2019-03-13T17:47:54.300Z,35.03
2019-03-13T17:50:24.181Z,36.50
2019-03-13T17:52:53.317Z,38.35
2019-03-13T17:55:26.498Z,39.18
2019-03-13T17:57:55.278Z,42.30
2019-03-13T18:00:50.107Z,40.23
2019-03-13T18:03:19.203Z,40.67
2019-03-13T18:05:48.047Z,40.33
2019-03-13T18:08:16.852Z,39.25
2019-03-13T18:10:45.693Z,39.90
2019-03-13T18:13:14.478Z,45.00
2019-03-13T18:15:43.329Z,44.73
2019-03-13T18:18:12.092Z,40.00
2019-03-13T18:20:40.903Z,42.38
2019-03-13T18:23:09.784Z,39.95
2019-03-13T18:25:38.589Z,45.83
2019-03-13T18:28:07.412Z,42.75
2019-03-13T18:30:36.718Z,42.48
2019-03-13T18:33:05.922Z,48.15
2019-03-13T18:35:34.712Z,41.00
2019-03-13T18:38:03.567Z,40.20
2019-03-13T18:40:32.436Z,36.98
2019-03-13T18:43:01.232Z,36.17
2019-03-13T18:45:34.256Z,40.30
2019-03-13T18:48:03.030Z,36.65
2019-03-13T18:50:31.833Z,38.15
2019-03-13T18:53:00.630Z,36.15
2019-03-13T18:55:32.003Z,39.53
2019-03-13T18:58:01.370Z,39.92
2019-03-13T19:00:36.928Z,36.05
2019-03-13T19:03:07.694Z,37.38
2019-03-13T19:05:37.838Z,37.45
2019-03-13T19:08:07.335Z,33.73
2019-03-13T19:10:36.303Z,36.10
2019-03-13T19:13:05.373Z,32.88
2019-03-13T19:15:34.333Z,36.20
2019-03-13T19:18:22.477Z,32.73
2019-03-13T19:20:53.799Z,33.75
2019-03-13T19:23:21.867Z,38.20
2019-03-13T19:25:51.057Z,32.73
2019-03-13T19:28:20.188Z,34.27
2019-03-13T19:30:49.058Z,34.55
2019-03-13T19:33:17.844Z,31.95
2019-03-13T19:35:46.712Z,32.35
2019-03-13T19:38:15.967Z,35.90
2019-03-13T19:40:44.806Z,37.85
2019-03-13T19:43:13.731Z,33.95
2019-03-13T19:45:44.577Z,34.15
2019-03-13T19:48:13.463Z,34.45
2019-03-13T19:50:42.357Z,36.20
2019-03-13T19:53:11.208Z,38.23
2019-03-13T19:55:40.063Z,37.78
2019-03-13T19:58:08.999Z,36.45
2019-03-13T20:00:37.762Z,34.70
2019-03-13T20:03:12.150Z,37.15
2019-03-13T20:05:45.946Z,38.45
2019-03-13T20:08:13.930Z,38.58
2019-03-13T20:10:43.084Z,36.77
2019-03-13T20:13:12.012Z,37.73
2019-03-13T20:15:41.270Z,37.95
2019-03-13T20:18:10.183Z,36.28
2019-03-13T20:20:40.694Z,39.18
2019-03-13T20:23:16.751Z,41.53
2019-03-13T20:25:45.570Z,36.88
2019-03-13T20:28:14.825Z,36.28
2019-03-13T20:30:43.605Z,33.28
2019-03-13T20:33:12.400Z,36.93
2019-03-13T20:35:41.325Z,34.83
2019-03-13T20:38:10.182Z,38.02
2019-03-13T20:40:39.029Z,38.08
2019-03-13T20:43:07.809Z,33.73
2019-03-13T20:45:36.882Z,36.88
2019-03-13T20:48:05.791Z,39.10
2019-03-13T20:50:37.850Z,35.60
2019-03-13T20:53:07.170Z,35.65
2019-03-13T20:55:36.064Z,41.25
2019-03-13T20:58:04.877Z,38.63
2019-03-13T21:00:34.965Z,40.20
2019-03-13T21:03:04.046Z,36.65
2019-03-13T21:05:32.897Z,40.78
2019-03-13T21:08:01.756Z,37.42
2019-03-13T21:10:30.679Z,36.85
2019-03-13T21:12:59.495Z,33.25
2019-03-13T21:15:29.036Z,36.00
2019-03-13T21:17:57.924Z,39.75
2019-03-13T21:20:26.741Z,36.25
2019-03-13T21:22:58.100Z,38.30
2019-03-13T21:25:27.097Z,38.33
2019-03-13T21:27:55.979Z,43.87
2019-03-13T21:30:28.648Z,39.63
2019-03-13T21:33:27.248Z,38.25
2019-03-13T21:35:56.025Z,37.15
2019-03-13T21:38:24.859Z,39.03
2019-03-13T21:40:53.826Z,37.80
2019-03-13T21:43:22.597Z,36.05
2019-03-13T21:45:51.514Z,37.67
2019-03-13T21:48:20.512Z,40.03
2019-03-13T21:50:50.514Z,40.60
2019-03-13T21:53:19.720Z,35.45
2019-03-13T21:55:48.624Z,37.67
2019-03-13T21:58:17.490Z,38.78
2019-03-13T22:00:46.294Z,35.00
2019-03-13T22:03:27.692Z,35.80
2019-03-13T22:05:46.238Z,36.85
2019-03-13T22:08:15.024Z,39.15
2019-03-13T22:10:43.894Z,38.20
2019-03-13T22:13:12.738Z,40.40
2019-03-13T22:15:41.601Z,43.10
2019-03-13T22:18:10.446Z,40.98
2019-03-13T22:20:39.262Z,37.70
2019-03-13T22:23:08.081Z,36.95
2019-03-13T22:25:43.056Z,36.38
2019-03-13T22:28:11.917Z,36.55
2019-03-13T22:30:40.764Z,35.17
2019-03-13T22:33:09.659Z,35.30
2019-03-13T22:35:38.520Z,42.70
2019-03-13T22:38:07.308Z,43.40
2019-03-13T22:40:36.224Z,41.42
2019-03-13T22:43:05.105Z,38.78
2019-03-13T22:45:33.848Z,34.38
2019-03-13T22:48:02.656Z,48.58
2019-03-13T22:50:31.666Z,40.78
2019-03-13T22:53:00.573Z,41.28
2019-03-13T22:55:29.439Z,39.83
2019-03-13T22:57:58.294Z,41.60
2019-03-13T23:00:52.608Z,38.25
2019-03-13T23:03:22.860Z,39.88
2019-03-13T23:05:51.749Z,39.85
2019-03-13T23:08:20.608Z,40.70
2019-03-13T23:10:49.467Z,38.60
2019-03-13T23:13:18.258Z,40.60
2019-03-13T23:15:47.265Z,43.90
2019-03-13T23:18:18.354Z,40.05
2019-03-13T23:20:46.497Z,42.15
2019-03-13T23:23:15.336Z,42.13
2019-03-13T23:25:44.088Z,41.73
2019-03-13T23:28:12.971Z,38.30
2019-03-13T23:30:41.869Z,37.60
2019-03-13T23:33:10.676Z,41.95
2019-03-13T23:35:39.468Z,44.15
2019-03-13T23:38:08.289Z,46.30
2019-03-13T23:40:37.182Z,46.33
2019-03-13T23:43:05.962Z,48.73
2019-03-13T23:45:34.742Z,47.60
2019-03-13T23:48:03.634Z,43.17
2019-03-13T23:50:32.617Z,46.83
2019-03-13T23:53:01.771Z,49.48
2019-03-13T23:55:30.528Z,49.80
2019-03-13T23:57:59.306Z,48.35
